createdAt,value
2023-04-02T00:02:35.644Z,16.90
2023-04-02T00:05:50.097Z,16.90
2023-04-02T00:08:42.794Z,16.90
2023-04-02T00:11:33.235Z,16.90
2023-04-02T00:14:26.363Z,16.90
2023-04-02T00:17:16.700Z,16.90
2023-04-02T00:20:08.279Z,17.00
2023-04-02T00:22:57.264Z,16.90
2023-04-02T00:25:47.340Z,16.90
2023-04-02T00:28:36.600Z,16.90
2023-04-02T00:31:27.215Z,16.90
2023-04-02T00:34:21.125Z,16.80
2023-04-02T00:37:18.284Z,16.50
2023-04-02T00:40:16.755Z,16.40
2023-04-02T00:43:08.887Z,16.40
2023-04-02T00:46:01.371Z,16.50
2023-04-02T00:48:55.568Z,16.50
2023-04-02T00:51:51.432Z,16.50
2023-04-02T00:54:44.513Z,16.20
2023-04-02T00:57:33.715Z,16.00
2023-04-02T01:00:24.919Z,15.90
2023-04-02T01:03:34.859Z,16.00
2023-04-02T01:06:24.028Z,16.20
2023-04-02T01:09:26.027Z,16.10
2023-04-02T01:12:40.949Z,16.20
2023-04-02T01:15:36.376Z,15.90
2023-04-02T01:18:46.436Z,15.70
2023-04-02T01:21:55.432Z,16.10
2023-04-02T01:24:45.883Z,15.50
2023-04-02T01:27:41.351Z,15.20
2023-04-02T01:30:31.674Z,15.00
2023-04-02T01:33:21.697Z,14.90
2023-04-02T01:36:16.413Z,15.00
2023-04-02T01:39:16.542Z,15.30
2023-04-02T01:42:13.698Z,15.40
2023-04-02T01:45:05.186Z,15.50
2023-04-02T01:47:55.071Z,15.40
2023-04-02T01:50:45.779Z,15.50
2023-04-02T01:53:34.248Z,14.60
2023-04-02T01:56:23.006Z,15.60
2023-04-02T01:59:12.176Z,15.60
2023-04-02T02:02:03.792Z,15.60
2023-04-02T02:04:54.210Z,15.70
2023-04-02T02:07:43.170Z,15.70
2023-04-02T02:10:36.253Z,15.70
2023-04-02T02:13:25.366Z,15.70
2023-04-02T02:16:18.962Z,15.70
2023-04-02T02:19:07.744Z,15.70
2023-04-02T02:22:04.594Z,15.70
2023-04-02T02:24:53.229Z,15.70
2023-04-02T02:27:48.911Z,15.70
2023-04-02T02:30:41.444Z,15.70
2023-04-02T02:33:33.662Z,15.80
2023-04-02T02:36:26.161Z,15.70
2023-04-02T02:39:21.420Z,15.70
2023-04-02T02:42:15.011Z,15.60
2023-04-02T02:45:08.172Z,15.50
2023-04-02T02:47:58.549Z,15.50
2023-04-02T02:50:47.962Z,15.50
2023-04-02T02:53:47.517Z,15.50
2023-04-02T02:56:42.312Z,15.30
2023-04-02T02:59:32.313Z,15.30
2023-04-02T03:02:21.029Z,15.30
2023-04-02T03:05:11.111Z,15.30
2023-04-02T03:08:02.198Z,15.30
2023-04-02T03:10:57.013Z,15.30
2023-04-02T03:13:50.289Z,15.30
2023-04-02T03:16:43.150Z,15.30
2023-04-02T03:19:39.744Z,15.20
2023-04-02T03:22:35.853Z,15.20
2023-04-02T03:25:37.602Z,15.30
2023-04-02T03:28:31.876Z,15.30
2023-04-02T03:31:26.562Z,15.40
2023-04-02T03:34:19.397Z,15.40
2023-04-02T03:37:15.617Z,15.40
2023-04-02T03:40:09.917Z,15.40
2023-04-02T03:43:06.477Z,15.40
2023-04-02T03:45:58.888Z,15.30
2023-04-02T03:48:52.193Z,15.30
2023-04-02T03:51:47.865Z,15.30
2023-04-02T03:54:37.119Z,15.30
2023-04-02T03:57:31.398Z,15.40
2023-04-02T04:00:26.031Z,15.40
2023-04-02T04:03:17.385Z,15.40
2023-04-02T04:06:11.459Z,15.30
2023-04-02T04:09:07.152Z,15.30
2023-04-02T04:12:06.743Z,15.30
2023-04-02T04:15:01.309Z,15.30
2023-04-02T04:17:56.698Z,15.30
2023-04-02T04:20:56.421Z,15.20
2023-04-02T04:23:52.211Z,15.20
2023-04-02T04:26:49.483Z,15.10
2023-04-02T04:29:45.631Z,15.10
2023-04-02T04:32:38.970Z,15.10
2023-04-02T04:35:31.793Z,15.10
2023-04-02T04:38:27.701Z,15.00
2023-04-02T04:41:22.609Z,14.90
2023-04-02T04:44:18.799Z,15.00
2023-04-02T04:47:11.828Z,15.10
2023-04-02T04:50:06.703Z,15.10
2023-04-02T04:52:55.224Z,15.20
2023-04-02T04:55:45.770Z,15.20
2023-04-02T04:58:38.565Z,15.10
2023-04-02T05:01:30.415Z,14.80
2023-04-02T05:04:22.705Z,14.80
2023-04-02T05:07:15.013Z,14.60
2023-04-02T05:10:10.529Z,14.80
2023-04-02T05:13:05.085Z,14.70
2023-04-02T05:16:05.995Z,14.60
2023-04-02T05:19:00.108Z,14.50
2023-04-02T05:21:51.831Z,14.50
2023-04-02T05:24:58.475Z,14.60
2023-04-02T05:27:52.713Z,14.70
2023-04-02T05:30:49.442Z,14.70
2023-04-02T05:33:40.671Z,14.80
2023-04-02T05:36:31.393Z,14.80
2023-04-02T05:39:23.823Z,13.80
2023-04-02T05:42:21.416Z,14.90
2023-04-02T05:45:20.787Z,14.90
2023-04-02T05:48:23.194Z,14.90
2023-04-02T05:51:19.106Z,15.00
2023-04-02T05:54:15.759Z,15.00
2023-04-02T05:57:08.617Z,15.00
2023-04-02T05:59:58.991Z,15.00
2023-04-02T06:02:54.922Z,15.00
2023-04-02T06:05:46.531Z,15.00
2023-04-02T06:08:43.026Z,15.00
2023-04-02T06:11:34.074Z,15.00
2023-04-02T06:14:22.632Z,15.00
2023-04-02T06:17:15.423Z,15.10
2023-04-02T06:20:07.137Z,15.10
2023-04-02T06:23:01.344Z,15.10
2023-04-02T06:25:56.457Z,15.10
2023-04-02T06:28:48.553Z,15.10
2023-04-02T06:31:40.218Z,15.10
2023-04-02T06:34:30.831Z,15.10
2023-04-02T06:37:25.901Z,15.20
2023-04-02T06:40:33.022Z,15.20
2023-04-02T06:43:33.258Z,15.20
2023-04-02T06:46:27.693Z,15.30
2023-04-02T06:49:23.119Z,15.30
2023-04-02T06:52:16.494Z,15.30
2023-04-02T06:55:20.425Z,15.30
2023-04-02T06:58:10.614Z,15.20
2023-04-02T07:01:00.670Z,15.20
2023-04-02T07:03:49.457Z,15.20
2023-04-02T07:06:38.022Z,15.20
2023-04-02T07:09:26.947Z,15.30
2023-04-02T07:12:15.847Z,15.30
2023-04-02T07:15:04.424Z,15.40
2023-04-02T07:17:57.179Z,15.30
2023-04-02T07:20:45.815Z,15.30
2023-04-02T07:23:34.317Z,15.20
2023-04-02T07:26:25.432Z,15.20
2023-04-02T07:29:17.409Z,15.20
2023-04-02T07:32:06.198Z,15.10
2023-04-02T07:34:56.062Z,15.00
2023-04-02T07:37:44.674Z,15.00
2023-04-02T07:40:33.138Z,14.90
2023-04-02T07:43:21.845Z,14.80
2023-04-02T07:46:11.753Z,14.70
2023-04-02T07:49:00.249Z,14.70
2023-04-02T07:51:53.352Z,14.70
2023-04-02T07:54:41.879Z,14.80
2023-04-02T07:57:30.495Z,14.80
2023-04-02T08:00:20.702Z,14.90
2023-04-02T08:03:09.176Z,14.90
2023-04-02T08:05:59.280Z,14.90
2023-04-02T08:08:49.304Z,14.80
2023-04-02T08:11:37.781Z,14.80
2023-04-02T08:14:26.282Z,14.90
2023-04-02T08:17:14.985Z,14.80
2023-04-02T08:20:04.360Z,14.70
2023-04-02T08:22:52.852Z,14.60
2023-04-02T08:25:42.698Z,14.50
2023-04-02T08:28:31.244Z,14.50
2023-04-02T08:31:19.883Z,14.50
2023-04-02T08:34:09.258Z,14.60
2023-04-02T08:36:59.188Z,14.70
2023-04-02T08:39:47.994Z,14.80
2023-04-02T08:42:42.503Z,14.90
2023-04-02T08:45:41.824Z,14.70
2023-04-02T08:48:34.831Z,14.60
2023-04-02T08:51:25.776Z,14.60
2023-04-02T08:54:19.927Z,14.40
2023-04-02T08:57:16.170Z,14.30
2023-04-02T09:00:17.581Z,14.50
2023-04-02T09:03:11.868Z,14.50
2023-04-02T09:06:02.427Z,14.60
2023-04-02T09:08:52.912Z,14.40
2023-04-02T09:11:49.554Z,14.60
2023-04-02T09:14:44.501Z,14.50
2023-04-02T09:17:42.776Z,14.50
2023-04-02T09:20:39.704Z,14.20
2023-04-02T09:23:29.246Z,14.20
2023-04-02T09:26:23.581Z,14.40
2023-04-02T09:29:39.279Z,14.00
2023-04-02T09:32:52.544Z,14.30
2023-04-02T09:35:57.667Z,14.20
2023-04-02T09:38:59.567Z,14.10
2023-04-02T09:41:59.008Z,14.30
2023-04-02T09:44:53.315Z,14.40
2023-04-02T09:47:42.556Z,14.70
2023-04-02T09:50:34.531Z,14.90
2023-04-02T09:53:31.527Z,15.20
2023-04-02T10:16:24.395Z,15.10
2023-04-02T10:19:22.315Z,15.10
2023-04-02T10:22:15.856Z,15.50
2023-04-02T10:25:14.219Z,15.90
2023-04-02T10:28:14.102Z,16.10
2023-04-02T10:31:09.946Z,16.20
2023-04-02T10:34:02.519Z,16.30
2023-04-02T10:39:46.928Z,15.90
2023-04-02T10:42:42.222Z,16.30
2023-04-02T10:45:40.056Z,16.30
2023-04-02T10:51:33.718Z,16.80
2023-04-02T10:57:38.208Z,17.40
2023-04-02T11:00:30.000Z,17.70
2023-04-02T11:03:25.504Z,17.90
2023-04-02T11:06:20.125Z,18.00
2023-04-02T11:09:17.998Z,17.90
2023-04-02T11:12:08.546Z,17.70
2023-04-02T11:14:58.836Z,17.70
2023-04-02T11:17:48.285Z,17.70
2023-04-02T11:20:58.431Z,17.80
2023-04-02T11:23:58.143Z,18.00
2023-04-02T11:26:47.822Z,18.50
2023-04-02T11:29:39.456Z,19.20
2023-04-02T11:32:35.853Z,19.70
2023-04-02T11:35:48.223Z,20.20
2023-04-02T11:38:52.924Z,20.30
2023-04-02T11:42:03.856Z,20.10
2023-04-02T11:44:52.413Z,20.30
2023-04-02T11:47:42.260Z,20.30
2023-04-02T11:50:32.265Z,20.20
2023-04-02T11:53:24.218Z,20.50
2023-04-02T11:56:21.327Z,21.00
2023-04-02T11:59:18.694Z,21.50
2023-04-02T12:02:19.766Z,21.80
2023-04-02T12:05:21.878Z,21.80
2023-04-02T12:08:23.347Z,22.00
2023-04-02T12:11:12.299Z,22.10
2023-04-02T12:14:01.882Z,22.20
2023-04-02T12:16:50.942Z,22.30
2023-04-02T12:19:39.370Z,22.40
2023-04-02T12:22:31.491Z,22.40
2023-04-02T12:25:29.258Z,22.30
2023-04-02T12:28:19.751Z,22.40
2023-04-02T12:31:16.615Z,22.60
2023-04-02T12:34:05.132Z,22.80
2023-04-02T12:36:59.556Z,22.70
2023-04-02T12:39:56.340Z,22.70
2023-04-02T12:42:44.908Z,22.80
2023-04-02T12:45:36.665Z,23.10
2023-04-02T12:48:25.577Z,23.30
2023-04-02T12:51:14.318Z,22.00
2023-04-02T12:54:03.045Z,23.50
2023-04-02T12:56:53.046Z,23.50
2023-04-02T12:59:42.721Z,23.50
2023-04-02T13:02:33.005Z,23.50
2023-04-02T13:05:35.887Z,23.60
2023-04-02T13:08:27.389Z,23.70
2023-04-02T13:11:16.228Z,23.70
2023-04-02T13:14:08.138Z,23.70
2023-04-02T13:16:56.999Z,23.60
2023-04-02T13:19:45.456Z,23.60
2023-04-02T13:22:34.315Z,23.60
2023-04-02T13:25:29.117Z,23.50
2023-04-02T13:28:18.090Z,23.50
2023-04-02T13:31:09.773Z,23.60
2023-04-02T13:33:58.697Z,23.80
2023-04-02T13:36:47.600Z,23.90
2023-04-02T13:39:36.106Z,23.90
2023-04-02T13:42:24.616Z,23.80
2023-04-02T13:45:26.745Z,23.60
2023-04-02T13:48:18.415Z,23.50
2023-04-02T13:51:07.028Z,23.40
2023-04-02T13:53:58.500Z,23.50
2023-04-02T13:56:47.221Z,23.40
2023-04-02T13:59:35.678Z,23.50
2023-04-02T14:02:26.409Z,23.60
2023-04-02T14:05:28.444Z,23.70
2023-04-02T14:08:24.074Z,23.80
2023-04-02T14:11:24.893Z,23.80
2023-04-02T14:14:25.491Z,23.80
2023-04-02T14:17:24.381Z,23.60
2023-04-02T14:20:26.160Z,23.10
2023-04-02T14:23:34.047Z,23.00
2023-04-02T14:26:28.878Z,23.20
2023-04-02T14:29:28.099Z,23.40
2023-04-02T14:32:23.616Z,23.50
2023-04-02T14:35:20.816Z,23.50
2023-04-02T14:38:18.583Z,23.30
2023-04-02T14:41:14.944Z,23.10
2023-04-02T14:44:06.184Z,23.00
2023-04-02T14:47:01.418Z,22.80
2023-04-02T14:49:54.912Z,22.30
2023-04-02T14:52:48.620Z,21.90
2023-04-02T14:55:42.518Z,21.60
2023-04-02T14:58:35.728Z,21.30
2023-04-02T15:01:29.644Z,21.10
2023-04-02T15:04:24.007Z,21.00
2023-04-02T15:07:18.907Z,20.90
2023-04-02T15:10:15.931Z,20.60
2023-04-02T15:13:12.794Z,20.30
2023-04-02T15:16:11.564Z,20.00
2023-04-02T15:19:02.040Z,19.90
2023-04-02T15:22:15.505Z,19.90
2023-04-02T15:25:20.650Z,19.90
2023-04-02T15:28:24.084Z,19.80
2023-04-02T15:31:15.034Z,19.70
2023-04-02T15:34:17.032Z,19.50
2023-04-02T15:37:12.936Z,19.30
2023-04-02T15:40:20.274Z,19.30
2023-04-02T15:46:16.097Z,19.20
2023-04-02T15:49:20.269Z,19.20
2023-04-02T15:52:13.618Z,19.20
2023-04-02T15:55:16.522Z,19.20
2023-04-02T15:58:24.096Z,19.20
2023-04-02T16:01:21.896Z,19.10
2023-04-02T16:04:41.700Z,19.00
2023-04-02T16:10:43.231Z,18.60
2023-04-02T16:13:33.876Z,18.30
2023-04-02T16:16:28.277Z,18.20
2023-04-02T16:19:24.155Z,17.90
2023-04-02T16:22:19.355Z,17.80
2023-04-02T16:25:17.283Z,17.50
2023-04-02T16:28:16.406Z,17.70
2023-04-02T16:31:12.063Z,17.70
2023-04-02T16:34:10.947Z,17.70
2023-04-02T16:37:06.285Z,17.50
2023-04-02T16:40:01.928Z,17.50
2023-04-02T16:42:57.227Z,17.70
2023-04-02T16:45:55.251Z,17.70
2023-04-02T16:48:51.752Z,17.80
2023-04-02T16:51:46.499Z,17.70
2023-04-02T16:54:42.107Z,17.50
2023-04-02T16:57:38.511Z,17.40
2023-04-02T17:00:38.221Z,17.20
2023-04-02T17:03:43.187Z,17.00
2023-04-02T17:15:27.871Z,16.90
2023-04-02T17:18:20.388Z,16.70
2023-04-02T17:21:12.152Z,17.20
2023-04-02T17:24:17.536Z,17.10
2023-04-02T17:27:14.969Z,17.10
2023-04-02T17:30:13.127Z,17.10
2023-04-02T17:33:01.676Z,17.20
2023-04-02T17:35:58.907Z,17.20
2023-04-02T17:38:57.885Z,17.30
2023-04-02T17:41:50.608Z,17.20
2023-04-02T17:45:00.132Z,17.00
2023-04-02T17:51:09.233Z,16.80
2023-04-02T17:54:08.433Z,16.70
2023-04-02T17:57:11.437Z,16.70
2023-04-02T18:00:17.763Z,16.80
2023-04-02T18:03:29.943Z,16.60
2023-04-02T18:06:23.096Z,16.50
2023-04-02T18:09:27.838Z,16.70
2023-04-02T18:12:29.738Z,16.80
2023-04-02T18:15:46.152Z,16.80
2023-04-02T18:19:10.097Z,16.60
2023-04-02T18:22:03.536Z,16.80
2023-04-02T18:25:15.455Z,16.90
2023-04-02T18:28:17.527Z,17.00
2023-04-02T18:31:18.787Z,17.10
2023-04-02T18:34:32.727Z,17.10
2023-04-02T18:37:29.083Z,16.90
2023-04-02T18:40:30.072Z,16.90
2023-04-02T18:43:34.020Z,17.00
2023-04-02T18:46:33.398Z,17.00
2023-04-02T18:49:28.302Z,17.10
2023-04-02T18:52:19.147Z,17.10
2023-04-02T18:55:15.594Z,17.10
2023-04-02T18:58:10.587Z,17.10
2023-04-02T19:01:00.441Z,17.10
2023-04-02T19:03:52.859Z,17.10
2023-04-02T19:06:45.456Z,17.00
2023-04-02T19:09:36.794Z,17.00
2023-04-02T19:12:25.254Z,16.80
2023-04-02T19:15:17.516Z,16.70
2023-04-02T19:18:14.863Z,16.80
2023-04-02T19:21:15.653Z,16.80
2023-04-02T19:24:18.617Z,16.70
2023-04-02T21:00:40.941Z,14.60
2023-04-02T21:03:30.852Z,14.50
2023-04-02T21:06:21.376Z,14.60
2023-04-02T21:09:19.535Z,14.80
2023-04-02T21:12:08.455Z,14.50
2023-04-02T21:15:01.037Z,14.40
2023-04-02T21:17:50.907Z,14.20
2023-04-02T21:20:40.823Z,13.70
2023-04-02T21:23:29.299Z,13.70
2023-04-02T21:26:18.854Z,13.90
2023-04-02T21:29:07.927Z,13.90
2023-04-02T21:31:56.508Z,13.90
2023-04-02T21:34:45.336Z,13.80
2023-04-02T21:37:35.221Z,13.30
2023-04-02T21:40:23.760Z,12.80
2023-04-02T21:43:12.255Z,12.80
2023-04-02T21:46:01.500Z,13.20
2023-04-02T21:48:51.114Z,13.10
2023-04-02T21:51:41.335Z,13.20
2023-04-02T21:54:31.113Z,13.20
2023-04-02T21:57:19.626Z,13.30
2023-04-02T22:00:12.349Z,13.40
2023-04-02T22:03:00.977Z,13.50
2023-04-02T22:05:49.572Z,13.60
2023-04-02T22:08:39.499Z,13.60
2023-04-02T22:11:31.678Z,13.10
2023-04-02T22:14:20.455Z,12.90
2023-04-02T22:17:08.972Z,12.80
2023-04-02T22:19:57.463Z,12.70
2023-04-02T22:22:46.035Z,12.80
2023-04-02T22:25:34.662Z,12.30
2023-04-02T22:28:24.626Z,12.10
2023-04-02T22:31:15.585Z,12.00
2023-04-02T22:34:06.146Z,12.00
2023-04-02T22:36:54.604Z,12.50
2023-04-02T22:39:42.998Z,12.50
2023-04-02T22:42:31.959Z,12.00
2023-04-02T22:45:21.980Z,11.70
2023-04-02T22:48:10.676Z,12.10
2023-04-02T22:50:59.236Z,12.50
2023-04-02T22:53:48.327Z,12.70
2023-04-02T22:56:37.535Z,12.70
2023-04-02T22:59:26.590Z,12.40
2023-04-02T23:02:16.558Z,12.50
2023-04-02T23:05:05.369Z,12.20
2023-04-02T23:07:53.935Z,12.30
2023-04-02T23:10:42.401Z,12.10
2023-04-02T23:13:30.951Z,12.10
2023-04-02T23:19:09.966Z,12.70
2023-04-02T23:21:58.360Z,12.10
2023-04-02T23:24:47.997Z,11.80
2023-04-02T23:27:36.898Z,11.40
2023-04-02T23:30:25.453Z,11.30
2023-04-02T23:33:14.000Z,11.20
2023-04-02T23:36:08.052Z,11.10
2023-04-02T23:38:59.735Z,11.20
2023-04-02T23:41:49.056Z,11.20
2023-04-02T23:44:37.527Z,11.30
2023-04-02T23:47:26.100Z,11.20
2023-04-02T23:50:14.552Z,11.40
2023-04-02T23:53:04.354Z,11.30
2023-04-02T23:55:52.974Z,11.90
2023-04-02T23:58:41.440Z,12.20
